Time;durP1;ratioP1;P1;durP2;ratioP2;P2;SDS_P1;SDS_P2;PMS_P1;PMS_P2;Temp;Humidity;BMP_temperature;BMP_pressure;BME280_temperature;BME280_humidity;BME280_pressure;Samples;Min_cycle;Max_cycle;Signal;HPM_P1;HPM_P2
2022/03/14 00:00:24;;;;;;;14.47;13.07;;;4.20;97.30;;;5.04;62.19;97918.75;5204681;28;20201;-55
2022/03/14 00:02:59;;;;;;;13.03;11.83;;;4.20;97.10;;;5.03;62.98;97922.03;5205985;28;20200;-57
2022/03/14 00:05:34;;;;;;;14.20;12.80;;;4.20;97.30;;;5.00;62.39;97921.78;5205343;28;20202;-57
2022/03/14 00:08:07;;;;;;;14.23;12.93;;;4.20;97.30;;;4.89;62.44;97924.38;5205282;28;20223;-57
2022/03/14 00:10:41;;;;;;;14.50;13.10;;;4.10;97.30;;;4.96;62.23;97934.19;5203979;28;20218;-56
2022/03/14 00:13:15;;;;;;;12.90;11.60;;;4.20;97.30;;;5.01;62.13;97938.72;5201433;28;20211;-56
2022/03/14 00:15:48;;;;;;;14.87;13.40;;;4.20;97.20;;;5.09;62.70;97942.75;5204864;28;20209;-57
2022/03/14 00:18:21;;;;;;;14.47;12.87;;;4.20;97.90;;;5.13;62.73;97949.88;5205935;28;20238;-56
2022/03/14 00:20:56;;;;;;;15.57;14.03;;;4.20;97.60;;;5.24;62.76;97963.38;5205355;28;20228;-57
2022/03/14 00:23:34;;;;;;;14.57;13.17;;;4.30;97.70;;;5.31;62.91;97969.03;5205943;28;20214;-57
2022/03/14 00:26:07;;;;;;;14.20;12.80;;;4.40;98.10;;;5.30;62.34;98002.75;5206096;28;20203;-57
2022/03/14 00:28:40;;;;;;;15.10;13.67;;;4.40;97.30;;;5.30;61.69;97997.69;5204281;28;20222;-57
2022/03/14 00:31:13;;;;;;;14.63;13.23;;;4.30;97.10;;;5.28;61.89;97995.78;5205148;28;20206;-57
2022/03/14 00:33:46;;;;;;;14.70;13.30;;;4.30;97.40;;;5.30;61.55;98005.28;5205074;28;20215;-57
2022/03/14 00:36:21;;;;;;;14.20;12.80;;;4.40;96.90;;;5.36;61.83;98008.31;5205189;28;20216;-57
2022/03/14 00:38:57;;;;;;;14.73;13.23;;;4.50;97.20;;;5.43;61.99;98008.00;5203981;28;20307;-56
2022/03/14 00:41:30;;;;;;;15.07;13.57;;;4.60;97.10;;;5.51;61.81;98007.75;5204123;28;20211;-57
2022/03/14 00:44:03;;;;;;;14.03;12.67;;;4.60;97.20;;;5.50;62.07;98004.34;5204052;28;20201;-56
2022/03/14 00:46:37;;;;;;;13.97;12.53;;;4.60;97.30;;;5.48;61.71;98010.03;5204670;28;20201;-57
2022/03/14 00:49:11;;;;;;;14.47;13.00;;;4.60;96.80;;;5.47;61.03;98013.34;5203530;28;20309;-56
2022/03/14 00:51:45;;;;;;;14.03;12.63;;;4.60;96.70;;;5.44;61.70;98008.94;5204067;28;20205;-57
2022/03/14 00:54:18;;;;;;;13.50;12.10;;;4.50;97.40;;;5.49;61.52;98016.88;5204275;28;20204;-56
2022/03/14 00:56:51;;;;;;;12.27;11.07;;;4.50;97.00;;;5.37;61.80;98017.66;5205943;28;20204;-55
2022/03/14 00:59:25;;;;;;;13.53;12.17;;;4.50;97.20;;;5.33;62.76;98024.94;5204583;28;20236;-56
2022/03/14 01:01:58;;;;;;;12.57;11.47;;;4.50;97.50;;;5.33;62.45;98030.88;5204442;28;20680;-54
2022/03/14 01:04:31;;;;;;;12.93;11.60;;;4.50;97.20;;;5.41;61.78;98029.84;5205883;28;20256;-55
2022/03/14 01:07:06;;;;;;;12.70;11.60;;;4.50;97.10;;;5.40;62.24;98038.19;5204485;28;20200;-56
2022/03/14 01:09:39;;;;;;;13.63;12.33;;;4.50;97.20;;;5.45;61.91;98052.91;5204977;28;20217;-55
2022/03/14 01:12:13;;;;;;;12.93;11.67;;;4.60;97.00;;;5.48;62.01;98069.22;5204678;28;20204;-56
2022/03/14 01:14:46;;;;;;;11.77;10.77;;;4.60;97.10;;;5.53;61.73;98084.81;5203860;28;20200;-56
2022/03/14 01:17:19;;;;;;;12.80;11.60;;;4.70;97.20;;;5.59;61.40;98095.44;5204749;28;20203;-56
2022/03/14 01:19:53;;;;;;;14.40;13.17;;;4.70;96.80;;;5.73;61.08;98109.22;5203695;28;20716;-58
2022/03/14 01:22:27;;;;;;;14.70;13.33;;;4.70;96.90;;;5.78;60.98;98103.75;5204186;28;20826;-56
2022/03/14 01:25:00;;;;;;;13.27;12.00;;;4.70;96.90;;;5.78;61.28;98118.97;5202693;28;20665;-57
2022/03/14 01:27:34;;;;;;;14.00;12.43;;;4.80;96.90;;;5.80;61.14;98131.75;5203643;28;20202;-57
2022/03/14 01:30:08;;;;;;;13.33;12.00;;;4.90;97.00;;;5.84;60.74;98129.59;5204387;28;20228;-56
2022/03/14 01:32:41;;;;;;;14.27;12.37;;;4.80;96.90;;;5.81;61.61;98149.66;5204355;28;20591;-57
2022/03/14 01:35:17;;;;;;;13.40;12.10;;;4.90;97.40;;;5.77;60.73;98142.53;5203889;28;20202;-54
2022/03/14 01:37:52;;;;;;;13.80;12.50;;;4.90;96.60;;;5.81;60.97;98148.75;5203107;28;20727;-56
2022/03/14 01:40:28;;;;;;;13.93;12.50;;;4.90;96.80;;;5.79;61.64;98151.16;5204067;28;20198;-55
2022/03/14 01:43:01;;;;;;;13.63;12.33;;;5.00;97.00;;;5.85;60.85;98160.91;5202209;28;20568;-56
2022/03/14 01:45:34;;;;;;;14.10;12.70;;;5.00;96.80;;;5.91;61.69;98180.81;5203696;28;20213;-53
2022/03/14 01:48:08;;;;;;;13.80;12.50;;;5.00;97.20;;;5.93;61.27;98197.03;5203867;28;20567;-55
2022/03/14 01:50:41;;;;;;;14.43;13.07;;;5.10;96.70;;;6.00;60.44;98207.81;5203118;28;20662;-54
2022/03/14 01:53:16;;;;;;;14.27;12.87;;;5.00;96.50;;;6.03;60.22;98215.69;5203806;28;20208;-54
2022/03/14 01:55:50;;;;;;;14.13;12.83;;;5.00;96.80;;;6.09;60.57;98225.44;5203845;28;20202;-54
2022/03/14 01:58:24;;;;;;;15.03;13.70;;;5.10;97.00;;;5.95;61.17;98233.59;5201389;28;20226;-53
2022/03/14 02:00:58;;;;;;;14.57;13.17;;;5.00;97.10;;;5.82;60.71;98236.75;5201116;28;20197;-52
2022/03/14 02:03:31;;;;;;;16.23;14.63;;;4.90;96.60;;;5.80;61.23;98251.84;5203224;28;20581;-54
2022/03/14 02:06:05;;;;;;;14.27;12.87;;;4.90;97.00;;;5.81;60.69;98261.25;5202531;28;20715;-53
2022/03/14 02:08:39;;;;;;;14.37;12.97;;;4.90;96.40;;;5.85;60.30;98262.38;5202908;28;20258;-54
2022/03/14 02:11:12;;;;;;;13.60;12.23;;;5.00;96.40;;;5.88;60.19;98273.66;5203528;28;20567;-52
2022/03/14 02:13:45;;;;;;;15.70;14.03;;;5.10;96.00;;;6.00;59.45;98280.53;5200117;28;20194;-52
2022/03/14 02:16:18;;;;;;;15.97;14.37;;;5.10;95.60;;;6.05;59.65;98286.84;5203722;28;20206;-52
2022/03/14 02:18:52;;;;;;;15.03;13.63;;;5.20;96.10;;;6.05;59.61;98297.88;5202540;28;20702;-53
2022/03/14 02:21:26;;;;;;;15.63;14.13;;;5.20;95.80;;;6.07;59.52;98295.50;5203677;28;20239;-53
2022/03/14 02:24:01;;;;;;;16.27;14.73;;;5.30;95.70;;;6.06;59.19;98303.84;5203262;28;20203;-51
2022/03/14 02:26:39;;;;;;;15.47;14.07;;;5.30;95.20;;;6.09;58.64;98299.03;5202889;28;20812;-52
2022/03/14 02:29:13;;;;;;;16.07;14.53;;;5.30;95.10;;;6.11;58.39;98311.84;5202968;28;20219;-51
2022/03/14 02:31:47;;;;;;;16.77;15.07;;;5.20;95.20;;;6.13;58.64;98313.75;5202938;28;20201;-51
2022/03/14 02:34:20;;;;;;;15.37;13.97;;;5.30;95.40;;;6.23;58.65;98320.44;5203604;28;20207;-52
2022/03/14 02:36:55;;;;;;;16.77;15.07;;;5.40;95.50;;;6.29;58.70;98326.91;5201424;28;20206;-55
2022/03/14 02:39:28;;;;;;;15.60;14.10;;;5.40;95.40;;;6.28;58.44;98332.75;5202534;28;20272;-51
2022/03/14 02:42:02;;;;;;;16.30;14.70;;;5.50;95.10;;;6.29;58.24;98344.66;5207523;28;20654;-56
2022/03/14 02:44:42;;;;;;;16.43;14.80;;;5.50;95.00;;;6.30;58.26;98350.66;5207068;28;20586;-56
2022/03/14 02:47:15;;;;;;;16.53;14.83;;;5.50;94.70;;;6.37;57.72;98357.09;5207136;28;20224;-55
2022/03/14 02:49:49;;;;;;;16.40;14.80;;;5.60;94.80;;;6.31;57.29;98357.50;5206459;28;20575;-55
2022/03/14 02:52:23;;;;;;;16.67;14.97;;;5.60;94.50;;;6.41;57.52;98359.13;5206598;28;20201;-57
2022/03/14 02:54:56;;;;;;;17.60;15.80;;;5.60;94.70;;;6.48;58.44;98357.22;5205081;28;20198;-54
2022/03/14 02:57:29;;;;;;;16.77;15.07;;;5.70;95.20;;;6.56;58.40;98362.91;5207022;28;20659;-55
2022/03/14 03:00:05;;;;;;;18.00;16.20;;;5.80;95.60;;;6.62;59.12;98365.94;5206192;28;20584;-52
2022/03/14 03:02:38;;;;;;;16.93;15.17;;;5.90;95.80;;;6.67;59.40;98367.22;5204514;28;20205;-55
2022/03/14 03:05:12;;;;;;;16.77;15.00;;;5.90;95.90;;;6.77;59.82;98376.44;5206919;28;20296;-56
2022/03/14 03:07:48;;;;;;;16.00;14.40;;;6.00;96.10;;;6.83;59.58;98376.03;5206632;28;20212;-54
2022/03/14 03:10:23;;;;;;;16.23;14.83;;;6.00;95.70;;;6.81;58.71;98375.94;5208143;28;20207;-53
2022/03/14 03:12:56;;;;;;;15.40;13.93;;;6.00;95.50;;;6.76;58.51;98370.47;5206753;28;20193;-56
2022/03/14 03:15:30;;;;;;;16.50;14.83;;;6.00;95.30;;;6.77;58.88;98387.47;5206686;28;20205;-56
2022/03/14 03:18:03;;;;;;;17.73;16.03;;;6.00;96.20;;;6.75;61.73;98394.13;5205472;28;20236;-53
2022/03/14 03:20:36;;;;;;;17.17;15.33;;;6.00;98.20;;;6.73;63.94;98392.22;5206547;28;20230;-53
2022/03/14 03:23:10;;;;;;;15.47;13.97;;;6.00;99.70;;;6.57;64.02;98395.16;5207730;28;20297;-56
2022/03/14 03:25:43;;;;;;;15.53;14.03;;;5.90;98.60;;;6.49;65.57;98403.78;5206130;28;20198;-54
2022/03/14 03:28:16;;;;;;;16.90;15.13;;;5.80;99.20;;;6.41;66.94;98413.34;5206682;28;20222;-53
2022/03/14 03:30:49;;;;;;;17.50;15.70;;;5.80;99.90;;;6.40;69.48;98413.22;5206389;28;20196;-57
2022/03/14 03:33:22;;;;;;;17.57;15.87;;;5.80;99.90;;;6.38;70.88;98415.63;5203071;28;20206;-53
2022/03/14 03:35:55;;;;;;;18.80;16.90;;;5.70;99.90;;;6.34;71.12;98422.88;5207360;28;20221;-54
2022/03/14 03:38:30;;;;;;;19.67;17.60;;;5.70;99.90;;;6.28;71.95;98429.19;5207891;28;20221;-55
2022/03/14 03:41:03;;;;;;;19.17;17.17;;;5.70;99.90;;;6.32;73.47;98437.94;5206061;28;20328;-56
2022/03/14 03:43:36;;;;;;;19.43;17.33;;;5.70;99.90;;;6.42;76.57;98442.16;5205745;28;20654;-56
2022/03/14 03:46:09;;;;;;;19.33;17.33;;;5.80;99.90;;;6.44;76.54;98448.22;5205789;28;20202;-53
2022/03/14 03:48:43;;;;;;;19.37;16.30;;;5.80;99.90;;;6.40;77.07;98463.97;5206125;28;20267;-54
2022/03/14 03:51:16;;;;;;;18.70;16.90;;;5.70;99.90;;;6.43;78.04;98464.22;5206837;28;20281;-56
2022/03/14 03:53:50;;;;;;;18.80;16.73;;;5.80;99.90;;;6.47;78.62;98471.38;5202513;28;20583;-54
2022/03/14 03:56:23;;;;;;;19.63;17.60;;;5.80;99.90;;;6.52;79.34;98475.16;5207803;28;20205;-56
2022/03/14 03:58:56;;;;;;;19.23;17.30;;;5.90;99.90;;;6.53;79.82;98482.03;5206415;28;20215;-55
2022/03/14 04:01:29;;;;;;;20.33;18.20;;;5.90;99.90;;;6.50;79.77;98486.84;5206079;28;20206;-56
2022/03/14 04:04:03;;;;;;;20.60;18.40;;;5.90;99.90;;;6.48;80.20;98488.38;5199337;28;20832;-55
2022/03/14 04:06:36;;;;;;;21.10;18.97;;;5.90;99.90;;;6.44;80.89;98497.38;5205200;28;20205;-57
2022/03/14 04:09:10;;;;;;;22.93;20.17;;;5.90;99.90;;;6.40;82.95;98505.50;5206482;28;20237;-54
2022/03/14 04:11:43;;;;;;;21.87;19.60;;;5.80;99.90;;;6.34;83.67;98501.56;5205024;28;20231;-56
2022/03/14 04:14:17;;;;;;;23.77;20.40;;;5.80;99.90;;;6.36;85.35;98492.44;5205587;28;20664;-58
2022/03/14 04:16:50;;;;;;;24.00;21.20;;;5.80;99.90;;;6.37;86.69;98496.75;5205835;28;20195;-58
2022/03/14 04:19:23;;;;;;;26.40;22.47;;;5.80;99.90;;;6.40;87.90;98507.16;5205621;28;20232;-56
2022/03/14 04:21:56;;;;;;;25.10;21.03;;;5.80;99.90;;;6.44;89.48;98506.63;5205203;28;20205;-57
2022/03/14 04:24:31;;;;;;;23.93;21.47;;;5.80;99.90;;;6.51;90.38;98519.09;5205287;28;20217;-56
2022/03/14 04:27:04;;;;;;;24.37;21.77;;;5.80;99.90;;;6.50;90.96;98522.41;5205203;28;20202;-55
2022/03/14 04:29:39;;;;;;;25.70;22.77;;;5.80;99.90;;;6.44;91.03;98526.94;5204748;28;20214;-55
2022/03/14 04:32:12;;;;;;;29.33;22.77;;;5.70;99.90;;;6.44;93.15;98524.41;5204765;28;20227;-56
2022/03/14 04:34:45;;;;;;;24.73;21.90;;;5.80;99.90;;;6.42;93.80;98533.56;5204567;28;20198;-56
2022/03/14 04:37:18;;;;;;;23.77;21.27;;;5.80;99.90;;;6.41;93.99;98536.84;5205182;28;20231;-57
2022/03/14 04:39:54;;;;;;;24.00;21.50;;;5.70;99.90;;;6.39;94.27;98556.16;5204485;28;20218;-56
2022/03/14 04:42:27;;;;;;;23.70;20.70;;;5.70;99.90;;;6.44;94.22;98559.94;5205172;28;20209;-56
2022/03/14 04:45:00;;;;;;;25.27;21.53;;;5.70;99.90;;;6.39;94.73;98534.19;5203722;28;20208;-56
2022/03/14 04:47:34;;;;;;;23.93;21.43;;;5.60;99.90;;;6.29;95.15;98522.34;5198039;28;20209;-56
2022/03/14 04:50:08;;;;;;;24.80;22.10;;;5.60;99.90;;;6.24;96.66;98522.75;5203724;28;20221;-55
2022/03/14 04:52:41;;;;;;;23.73;21.20;;;5.60;99.90;;;6.31;96.48;98561.47;5204061;28;20190;-56
2022/03/14 04:55:16;;;;;;;25.03;21.57;;;5.60;99.90;;;6.34;97.08;98565.03;5204630;28;20198;-56
2022/03/14 04:57:49;;;;;;;26.43;21.60;;;5.60;99.90;;;6.22;97.06;98581.00;5204479;28;20205;-56
2022/03/14 05:00:23;;;;;;;24.17;21.60;;;5.60;99.90;;;6.08;97.06;98584.00;5197852;28;20226;-56
2022/03/14 05:03:01;;;;;;;26.23;23.47;;;5.40;99.90;;;6.11;97.28;98586.78;5202528;28;20198;-54
2022/03/14 05:05:37;;;;;;;24.33;21.37;;;5.40;99.90;;;6.18;97.05;98594.19;5204510;28;20220;-54
2022/03/14 05:08:10;;;;;;;24.57;21.97;;;5.50;99.90;;;6.25;97.58;98598.13;5203709;28;20227;-57
2022/03/14 05:10:44;;;;;;;25.27;21.57;;;5.60;99.90;;;6.28;98.15;98601.81;5203397;28;20199;-57
2022/03/14 05:13:17;;;;;;;27.10;23.70;;;5.60;99.90;;;6.34;98.76;98595.50;5203092;28;20204;-55
2022/03/14 05:15:50;;;;;;;25.07;22.27;;;5.70;99.90;;;6.39;98.76;98609.47;5203823;28;20205;-57
2022/03/14 05:18:23;;;;;;;30.97;24.53;;;5.70;99.90;;;6.40;98.74;98601.97;5203768;28;20253;-55
2022/03/14 05:20:56;;;;;;;28.00;24.97;;;5.70;99.90;;;6.45;99.40;98615.06;5203661;28;20218;-57
2022/03/14 05:23:30;;;;;;;30.37;26.70;;;5.80;99.90;;;6.51;99.99;98606.31;5203769;28;20198;-57
2022/03/14 05:26:04;;;;;;;31.50;26.83;;;5.80;99.90;;;6.49;100.00;98612.00;5203296;28;20214;-56
2022/03/14 05:28:38;;;;;;;33.67;27.13;;;5.80;99.90;;;6.54;100.00;98623.47;5203581;28;20251;-57
2022/03/14 05:31:11;;;;;;;31.17;25.90;;;5.80;99.90;;;6.46;100.00;98634.59;5203551;28;20205;-57
2022/03/14 05:33:44;;;;;;;35.17;27.80;;;5.70;99.90;;;6.43;100.00;98637.78;5203570;28;20392;-57
2022/03/14 05:36:18;;;;;;;34.83;28.93;;;5.70;99.90;;;6.39;100.00;98643.38;5202920;28;20230;-57
2022/03/14 05:38:51;;;;;;;31.87;26.50;;;5.60;99.90;;;6.34;100.00;98646.25;5203718;28;20222;-58
2022/03/14 05:41:25;;;;;;;30.50;26.10;;;5.60;99.90;;;6.35;100.00;98658.19;5200559;28;20233;-58
2022/03/14 05:43:58;;;;;;;35.67;28.00;;;5.70;99.90;;;6.32;100.00;98667.34;5200550;28;20200;-57
2022/03/14 05:46:32;;;;;;;31.07;26.47;;;5.70;99.90;;;6.26;100.00;98669.31;5202262;28;20647;-57
2022/03/14 05:49:05;;;;;;;29.97;25.20;;;5.60;99.90;;;6.22;100.00;98672.38;5202900;28;20224;-57
2022/03/14 05:51:39;;;;;;;30.83;26.33;;;5.50;99.90;;;6.23;100.00;98679.22;5201917;28;20209;-58
2022/03/14 05:54:12;;;;;;;31.50;25.43;;;5.50;99.90;;;6.21;100.00;98680.75;5203662;28;20225;-57
2022/03/14 05:56:46;;;;;;;31.93;25.97;;;5.50;99.90;;;6.23;100.00;98679.22;5201986;28;20285;-55
2022/03/14 05:59:19;;;;;;;32.57;26.73;;;5.60;99.90;;;6.29;100.00;98683.94;5201663;28;20237;-58
2022/03/14 06:01:52;;;;;;;34.30;26.80;;;5.60;99.90;;;6.36;100.00;98680.31;5202022;28;20704;-58
2022/03/14 06:04:26;;;;;;;32.07;26.13;;;5.70;99.90;;;6.40;100.00;98679.78;5204607;28;20320;-58
2022/03/14 06:06:59;;;;;;;29.67;25.57;;;5.70;99.90;;;6.41;100.00;98684.09;5203973;28;20650;-56
2022/03/14 06:09:32;;;;;;;33.37;26.80;;;5.70;99.90;;;6.43;100.00;98693.63;5202070;28;20546;-56
2022/03/14 06:12:09;;;;;;;31.43;27.03;;;5.80;99.90;;;6.52;100.00;98698.63;5203389;28;20215;-56
2022/03/14 06:14:42;;;;;;;32.50;26.73;;;5.80;99.90;;;6.59;100.00;98711.09;5204545;28;20193;-56
2022/03/14 06:17:15;;;;;;;32.07;26.60;;;5.80;99.90;;;6.61;100.00;98704.50;5206248;28;20198;-56
2022/03/14 06:19:49;;;;;;;32.60;27.80;;;5.90;99.90;;;6.62;100.00;98708.81;5206841;28;20226;-55
2022/03/14 06:22:24;;;;;;;33.67;26.97;;;5.90;99.90;;;6.64;100.00;98716.56;5207252;28;20711;-54
2022/03/14 06:24:57;;;;;;;32.93;27.70;;;5.90;99.90;;;6.65;100.00;98724.31;5206843;28;20202;-55
2022/03/14 06:27:31;;;;;;;31.63;26.93;;;5.90;99.90;;;6.74;100.00;98724.22;5205980;28;20666;-56
2022/03/14 06:30:05;;;;;;;30.27;26.43;;;6.00;99.90;;;6.78;100.00;98733.88;5206181;28;20220;-55
2022/03/14 06:32:41;;;;;;;36.33;30.67;;;6.10;99.90;;;6.83;100.00;98734.28;5206646;28;20197;-55
2022/03/14 06:35:16;;;;;;;31.20;27.57;;;6.10;99.90;;;6.88;100.00;98739.00;5205626;28;20479;-56
2022/03/14 06:37:50;;;;;;;35.23;29.20;;;6.10;99.90;;;6.94;100.00;98741.16;5208121;28;20198;-55
2022/03/14 06:40:26;;;;;;;31.80;27.60;;;6.20;99.90;;;7.00;100.00;98749.31;5203718;28;20197;-55
2022/03/14 06:43:00;;;;;;;34.23;27.93;;;6.30;99.90;;;7.10;100.00;98756.09;5207264;28;20220;-58
2022/03/14 06:45:33;;;;;;;38.33;31.00;;;6.30;99.90;;;7.23;100.00;98753.78;5206332;28;20200;-53
2022/03/14 06:48:07;;;;;;;37.73;30.83;;;6.50;99.90;;;7.40;100.00;98752.66;5206808;28;20225;-57
2022/03/14 06:50:40;;;;;;;38.03;31.33;;;6.60;99.90;;;7.74;100.00;98745.28;5206923;28;20197;-58
2022/03/14 06:53:13;;;;;;;37.17;31.43;;;6.80;99.90;;;7.92;100.00;98754.44;5206419;28;20700;-57
2022/03/14 06:55:47;;;;;;;37.80;30.93;;;6.90;99.90;;;8.12;100.00;98751.84;5207452;28;20216;-58
2022/03/14 06:58:22;;;;;;;32.43;28.43;;;7.00;99.90;;;8.37;100.00;98756.38;5205382;28;20316;-56
2022/03/14 07:00:56;;;;;;;24.40;20.50;;;7.20;99.90;;;9.03;100.00;98759.03;5205127;28;20565;-55
2022/03/14 07:03:29;;;;;;;25.00;20.10;;;7.60;99.90;;;9.55;100.00;98754.47;5205972;28;20628;-53
2022/03/14 07:06:03;;;;;;;24.53;21.67;;;8.10;99.90;;;9.68;99.88;98762.28;5201848;28;20206;-55
2022/03/14 07:08:36;;;;;;;24.60;20.37;;;8.10;99.90;;;9.43;98.07;98765.53;5205645;28;20225;-53
2022/03/14 07:11:09;;;;;;;23.33;20.37;;;8.10;99.90;;;9.30;99.54;98765.38;5202708;28;20190;-56
2022/03/14 07:13:43;;;;;;;24.03;19.33;;;8.00;99.90;;;9.42;100.00;98776.53;5207424;28;20249;-55
2022/03/14 07:16:17;;;;;;;16.00;14.37;;;8.30;99.90;;;9.63;100.00;98769.59;5203024;28;20641;-56
2022/03/14 07:18:51;;;;;;;15.17;12.63;;;8.50;99.90;;;9.79;99.55;98783.53;5206048;28;20249;-55
2022/03/14 07:21:28;;;;;;;11.53;10.37;;;8.80;99.90;;;9.92;99.08;98787.09;5205203;28;20627;-56
2022/03/14 07:24:01;;;;;;;8.10;7.30;;;9.00;99.90;;;10.25;99.59;98787.81;5205441;28;20264;-53
2022/03/14 07:26:35;;;;;;;7.90;7.13;;;9.20;99.90;;;10.46;98.96;98798.72;5205349;28;20218;-56
2022/03/14 07:29:09;;;;;;;8.60;7.70;;;9.40;99.90;;;10.65;98.74;98795.84;5206160;28;20691;-57
2022/03/14 07:31:42;;;;;;;10.27;8.70;;;9.70;99.90;;;10.92;98.03;98813.94;5206218;28;20530;-56
2022/03/14 07:34:16;;;;;;;9.90;8.33;;;10.00;99.90;;;11.15;97.90;98816.44;5206160;28;20288;-55
2022/03/14 07:36:49;;;;;;;8.10;7.30;;;10.20;99.90;;;11.32;94.57;98827.84;5204874;28;20196;-54
2022/03/14 07:39:22;;;;;;;6.37;5.77;;;10.40;99.90;;;11.33;90.27;98818.50;5205241;28;20222;-56
2022/03/14 07:41:55;;;;;;;6.73;6.13;;;10.50;99.90;;;11.39;92.28;98836.84;5205595;28;20228;-57
2022/03/14 07:44:30;;;;;;;6.20;5.70;;;10.50;99.90;;;11.35;93.18;98827.19;5205514;28;20664;-57
2022/03/14 07:47:06;;;;;;;6.70;6.10;;;10.30;99.90;;;11.26;92.58;98830.88;5206737;28;20210;-57
2022/03/14 07:49:39;;;;;;;5.57;4.97;;;10.20;99.90;;;11.14;92.12;98837.69;5206164;28;20709;-58
2022/03/14 07:52:12;;;;;;;4.90;4.40;;;10.00;99.90;;;11.14;93.23;98834.25;5204806;28;20209;-57
2022/03/14 07:54:45;;;;;;;4.60;4.30;;;10.00;99.90;;;11.21;90.99;98846.69;5204234;28;20204;-57
2022/03/14 07:57:18;;;;;;;4.13;3.80;;;10.20;99.90;;;11.27;92.61;98848.03;5206373;28;20555;-57
2022/03/14 07:59:52;;;;;;;3.50;3.20;;;10.30;99.90;;;11.34;89.94;98854.44;5205237;28;20599;-57
2022/03/14 08:02:25;;;;;;;3.40;3.10;;;10.20;99.90;;;11.22;86.73;98864.72;5205556;28;20209;-58
2022/03/14 08:04:59;;;;;;;3.13;2.83;;;10.10;99.90;;;11.14;87.64;98865.84;5204719;28;20198;-58
2022/03/14 08:07:32;;;;;;;2.90;2.70;;;10.00;99.90;;;11.03;85.49;98866.75;5204605;28;20216;-57
2022/03/14 08:10:09;;;;;;;2.80;2.60;;;9.80;99.90;;;11.07;86.96;98867.84;5204964;28;20221;-58
2022/03/14 08:12:46;;;;;;;2.90;2.70;;;9.90;99.90;;;11.17;87.82;98875.41;5205567;28;20732;-58
2022/03/14 08:15:23;;;;;;;4.97;4.57;;;10.00;99.90;;;11.35;86.61;98886.94;5205895;28;20202;-56
2022/03/14 08:17:58;;;;;;;3.83;3.63;;;10.10;99.90;;;11.72;86.10;98885.25;5204516;28;20205;-57
2022/03/14 08:20:32;;;;;;;2.80;2.60;;;10.70;99.90;;;12.05;80.48;98893.53;5204410;28;20641;-57
2022/03/14 08:23:06;;;;;;;2.50;2.40;;;11.20;99.90;;;12.42;80.55;98883.19;5203680;28;20221;-55
2022/03/14 08:25:39;;;;;;;2.65;2.45;;;11.50;99.90;;;12.15;78.72;98893.34;5204964;28;20210;-58
2022/03/14 08:28:12;;;;;;;2.63;2.42;;;11.40;99.90;;;12.12;76.14;98895.69;5205014;28;20226;-56
2022/03/14 08:30:48;;;;;;;2.78;2.50;;;11.40;99.90;;;12.03;78.17;98901.88;5201912;28;20199;-57
2022/03/14 08:33:22;;;;;;;2.28;2.10;;;11.40;99.90;;;12.25;77.08;98899.13;5204918;28;20205;-58
2022/03/14 08:36:00;;;;;;;2.67;2.35;;;11.50;99.90;;;12.45;76.99;98893.63;5203325;28;20252;-55
2022/03/14 08:38:34;;;;;;;3.70;2.65;;;11.60;99.90;;;12.24;73.88;98902.44;5204893;28;20228;-57
2022/03/14 08:41:07;;;;;;;2.47;2.20;;;11.50;99.90;;;12.21;74.07;98912.50;5203950;28;20202;-57
2022/03/14 08:43:40;;;;;;;3.78;2.30;;;11.40;99.90;;;12.16;72.54;98920.78;5205468;28;20226;-55
2022/03/14 08:46:15;;;;;;;3.47;2.53;;;11.30;99.90;;;12.09;71.13;98916.00;5205712;28;20198;-57
2022/03/14 08:48:49;;;;;;;2.20;2.00;;;11.10;99.90;;;12.17;70.65;98916.53;5204707;28;20221;-57
2022/03/14 08:51:22;;;;;;;3.55;2.45;;;11.00;99.90;;;12.01;71.44;98929.06;5203942;28;20557;-54
2022/03/14 08:53:55;;;;;;;3.88;2.40;;;10.80;99.90;;;11.87;71.54;98923.00;5204209;28;20194;-55
2022/03/14 08:56:28;;;;;;;3.00;2.65;;;10.60;99.90;;;11.78;70.90;98924.91;5203726;28;20561;-57
2022/03/14 08:59:01;;;;;;;3.72;2.15;;;10.50;99.90;;;11.61;72.08;98923.72;5204267;28;20704;-57
2022/03/14 09:01:36;;;;;;;3.50;2.58;;;10.40;99.90;;;11.59;72.15;98933.88;5204519;28;20202;-57
2022/03/14 09:04:09;;;;;;;2.58;2.30;;;10.50;99.90;;;11.78;70.60;98930.91;5203611;28;20201;-58
2022/03/14 09:06:42;;;;;;;3.80;2.53;;;10.70;99.90;;;11.77;71.02;98928.25;5203966;28;20202;-56
2022/03/14 09:09:15;;;;;;;3.67;2.10;;;10.80;99.90;;;11.85;69.71;98922.00;5203370;28;20232;-55
2022/03/14 09:11:48;;;;;;;3.38;1.92;;;10.80;99.90;;;11.78;69.60;98936.03;5203518;28;20201;-58
2022/03/14 09:14:21;;;;;;;2.38;2.03;;;10.80;99.90;;;11.83;69.38;98934.69;5203905;28;20208;-56
2022/03/14 09:16:56;;;;;;;2.92;2.20;;;10.70;99.90;;;11.75;67.89;98935.81;5203579;28;20205;-58
2022/03/14 09:19:29;;;;;;;2.60;2.38;;;10.60;99.90;;;11.99;65.93;98946.00;5204275;28;20221;-55
2022/03/14 09:22:05;;;;;;;2.40;2.20;;;10.70;99.90;;;11.68;66.40;98944.75;5203933;28;20228;-56
2022/03/14 09:24:39;;;;;;;2.08;1.92;;;10.60;99.90;;;11.66;66.14;98942.84;5204020;28;20197;-56
2022/03/14 09:27:12;;;;;;;3.40;2.30;;;10.60;99.90;;;11.59;66.50;98951.78;5203590;28;20212;-58
2022/03/14 09:29:45;;;;;;;3.50;2.40;;;10.50;99.90;;;11.55;65.98;98957.47;5202798;28;20218;-55
2022/03/14 09:32:20;;;;;;;4.50;2.05;;;10.40;99.90;;;11.67;65.54;98955.75;5203646;28;20193;-57
2022/03/14 09:34:53;;;;;;;2.40;2.20;;;10.60;99.90;;;11.88;65.80;98948.72;5204084;28;20201;-56
2022/03/14 09:37:26;;;;;;;3.30;2.35;;;11.00;99.90;;;11.92;65.34;98952.38;5202744;28;20200;-55
2022/03/14 09:39:59;;;;;;;2.72;2.03;;;11.10;99.90;;;12.16;63.26;98959.22;5203731;28;20213;-55
2022/03/14 09:42:40;;;;;;;4.18;2.38;;;11.40;99.90;;;12.57;63.73;98952.53;5202559;28;20224;-54
2022/03/14 09:45:14;;;;;;;2.95;2.20;;;11.80;99.90;;;12.70;62.80;98956.78;5203221;28;20256;-56
2022/03/14 09:47:51;;;;;;;2.85;2.30;;;12.00;99.90;;;12.81;62.07;98960.97;5202377;28;20630;-57
2022/03/14 09:50:28;;;;;;;3.28;2.22;;;12.00;99.90;;;12.74;60.78;98963.94;5201466;28;20680;-56
2022/03/14 09:53:05;;;;;;;3.70;2.55;;;11.70;99.90;;;12.76;61.16;98960.69;5204258;28;20216;-54
2022/03/14 09:55:41;;;;;;;3.55;1.95;;;11.80;99.90;;;12.84;59.85;98966.28;5202746;28;20201;-57
2022/03/14 09:58:17;;;;;;;3.22;2.10;;;11.80;99.90;;;12.75;58.52;98968.25;5203818;28;20689;-58
2022/03/14 10:00:51;;;;;;;2.30;2.10;;;11.80;99.90;;;12.55;58.35;98984.88;5203071;28;20215;-54
2022/03/14 10:03:27;;;;;;;2.88;2.10;;;11.60;99.90;;;12.48;57.57;98986.16;5202756;28;20605;-56
2022/03/14 10:06:00;;;;;;;2.20;2.00;;;11.40;99.80;;;12.25;57.12;98986.28;5202849;28;20205;-52
2022/03/14 10:08:34;;;;;;;2.92;1.90;;;11.30;98.70;;;12.19;56.45;98986.75;5203012;28;20237;-54
2022/03/14 10:11:09;;;;;;;2.97;2.22;;;11.30;98.50;;;12.35;55.61;98983.53;5203508;28;20688;-57
2022/03/14 10:13:46;;;;;;;2.22;2.10;;;11.50;97.60;;;12.39;55.90;98977.84;5202708;28;20198;-55
2022/03/14 10:16:19;;;;;;;3.33;2.15;;;11.70;97.40;;;12.46;55.54;98974.91;5203291;28;20247;-56
2022/03/14 10:18:56;;;;;;;1.88;1.65;;;11.90;97.10;;;12.68;54.44;98968.66;5203085;28;20693;-56
2022/03/14 10:21:34;;;;;;;4.25;1.70;;;12.10;96.30;;;12.87;54.19;98958.78;5204050;28;20202;-55
2022/03/14 10:24:10;;;;;;;3.13;1.77;;;12.30;96.20;;;12.94;54.42;98963.56;5202776;28;20682;-56
2022/03/14 10:26:46;;;;;;;2.20;2.00;;;12.30;96.10;;;13.14;53.55;98974.25;5202647;28;20209;-56
2022/03/14 10:29:20;;;;;;;2.97;2.15;;;12.40;96.20;;;13.26;54.09;98975.94;5202950;28;20600;-56
2022/03/14 10:31:56;;;;;;;3.70;1.90;;;12.60;95.70;;;13.29;52.64;98977.81;5203351;28;20197;-55
2022/03/14 10:34:30;;;;;;;3.30;2.17;;;12.50;94.80;;;13.14;51.60;98981.94;5203223;28;20662;-57
2022/03/14 10:37:13;;;;;;;3.38;1.95;;;12.50;94.50;;;13.20;51.08;98969.50;5203304;28;20209;-57
2022/03/14 10:39:46;;;;;;;3.03;2.10;;;12.50;94.00;;;13.22;50.18;98970.47;5203155;28;20566;-56
2022/03/14 10:42:19;;;;;;;2.67;1.80;;;12.60;93.20;;;13.16;51.43;98970.06;5203043;28;20206;-56
2022/03/14 10:44:55;;;;;;;2.55;2.08;;;12.70;94.40;;;13.45;51.21;98965.19;5203188;28;20217;-55